createdAt,value
2022-09-30T00:00:12.182Z,18.2
2022-09-30T00:01:28.363Z,18.2
2022-09-30T00:02:44.552Z,18.2
2022-09-30T00:04:00.000Z,18.2
2022-09-30T00:05:16.931Z,18.2
2022-09-30T00:06:32.812Z,18.2
2022-09-30T00:07:49.302Z,18.2
2022-09-30T00:09:04.214Z,18.2
2022-09-30T00:10:20.392Z,18.2
2022-09-30T00:11:36.870Z,18.2
2022-09-30T00:12:53.062Z,18.2
2022-09-30T00:14:09.259Z,18.2
2022-09-30T00:15:25.439Z,18.2
2022-09-30T00:16:41.339Z,18.2
2022-09-30T00:17:57.815Z,18.2
2022-09-30T00:19:13.995Z,18.2
2022-09-30T00:20:30.182Z,18.2
2022-09-30T00:21:46.382Z,18.2
2022-09-30T00:23:02.561Z,18.2
2022-09-30T00:24:18.757Z,18.2
2022-09-30T00:25:33.958Z,18.2
2022-09-30T00:26:50.142Z,18.2
2022-09-30T00:28:06.319Z,18.2
2022-09-30T00:29:22.518Z,18.2
2022-09-30T00:30:38.702Z,18.2
2022-09-30T00:31:54.588Z,18.2
2022-09-30T00:33:11.069Z,18.2
2022-09-30T00:34:27.269Z,18.2
2022-09-30T00:35:43.157Z,18.2
2022-09-30T00:36:59.637Z,18.2
2022-09-30T00:38:15.829Z,18.2
2022-09-30T00:39:31.708Z,18.2
2022-09-30T00:40:48.203Z,18.2
2022-09-30T00:42:03.111Z,18.2
2022-09-30T00:43:19.588Z,18.1
2022-09-30T00:44:35.785Z,18.2
2022-09-30T00:45:51.976Z,18.1
2022-09-30T00:47:07.850Z,18.1
2022-09-30T00:48:24.044Z,18.1
2022-09-30T00:49:40.526Z,18.1
2022-09-30T00:50:56.412Z,18.1
2022-09-30T00:52:12.599Z,18.1
2022-09-30T00:53:29.092Z,18.1
2022-09-30T00:54:44.979Z,18.1
2022-09-30T00:56:01.457Z,18.1
2022-09-30T00:57:17.341Z,18.1
2022-09-30T00:58:32.853Z,18.1
2022-09-30T00:59:48.730Z,18.1
2022-09-30T01:01:04.925Z,18.1
2022-09-30T01:02:21.117Z,18.1
2022-09-30T01:03:37.296Z,18.1
2022-09-30T01:04:53.782Z,18.1
2022-09-30T01:06:09.971Z,18.1
2022-09-30T01:07:26.161Z,18.1
2022-09-30T01:08:42.357Z,18.1
2022-09-30T01:09:58.236Z,18.1
2022-09-30T01:11:14.727Z,18.1
2022-09-30T01:12:30.907Z,18.1
2022-09-30T01:13:46.789Z,18.1
2022-09-30T01:15:02.006Z,18.1
2022-09-30T01:16:18.179Z,18.1
2022-09-30T01:17:34.675Z,18.1
2022-09-30T01:18:50.860Z,18.1
2022-09-30T01:20:07.055Z,18.1
2022-09-30T01:21:23.232Z,18.1
2022-09-30T01:22:39.438Z,18.1
2022-09-30T01:23:55.619Z,18.1
2022-09-30T01:25:11.490Z,18.1
2022-09-30T01:26:27.689Z,18.1
2022-09-30T01:27:44.170Z,18.1
2022-09-30T01:29:00.373Z,18.1
2022-09-30T01:30:16.549Z,18.1
2022-09-30T01:31:31.766Z,18.1
2022-09-30T01:32:47.621Z,18.1
2022-09-30T01:34:04.127Z,18.1
2022-09-30T01:35:20.324Z,18.1
2022-09-30T01:36:36.503Z,18.1
2022-09-30T01:37:52.683Z,18.1
2022-09-30T01:39:08.574Z,18.1
2022-09-30T01:40:25.070Z,18.1
2022-09-30T01:41:41.246Z,18.1
2022-09-30T01:42:57.440Z,18
2022-09-30T01:44:13.627Z,18
2022-09-30T01:45:29.814Z,18.1
2022-09-30T01:46:45.997Z,18.1
2022-09-30T01:48:00.883Z,18
2022-09-30T01:49:17.387Z,18.1
2022-09-30T01:50:33.584Z,18
2022-09-30T01:51:49.452Z,18
2022-09-30T01:53:05.957Z,18.1
2022-09-30T01:54:22.135Z,18
2022-09-30T01:55:38.007Z,18
2022-09-30T01:56:54.512Z,18
2022-09-30T01:58:10.387Z,18
2022-09-30T01:59:26.896Z,18
2022-09-30T02:00:43.079Z,18
2022-09-30T02:01:59.277Z,18
2022-09-30T02:03:15.138Z,18
2022-09-30T02:04:30.333Z,18
2022-09-30T02:05:46.521Z,18
2022-09-30T02:07:03.030Z,18
2022-09-30T02:08:19.223Z,18
2022-09-30T02:09:35.406Z,18
2022-09-30T02:10:51.266Z,18
2022-09-30T02:12:07.775Z,18
2022-09-30T02:13:23.643Z,18
2022-09-30T02:14:39.840Z,18
2022-09-30T02:15:56.339Z,18
2022-09-30T02:17:12.204Z,18
2022-09-30T02:18:28.399Z,18
2022-09-30T02:19:44.901Z,18
2022-09-30T02:20:59.791Z,18
2022-09-30T02:22:15.979Z,18
2022-09-30T02:23:32.157Z,18
2022-09-30T02:24:48.341Z,18
2022-09-30T02:26:04.524Z,18
2022-09-30T02:27:21.045Z,18
2022-09-30T02:28:35.921Z,18
2022-09-30T02:29:52.117Z,18
2022-09-30T02:31:08.633Z,18
2022-09-30T02:32:24.808Z,18
2022-09-30T02:33:40.671Z,18
2022-09-30T02:34:57.197Z,18
2022-09-30T02:36:13.378Z,18
2022-09-30T02:37:29.573Z,18
2022-09-30T02:38:45.756Z,18
2022-09-30T02:40:01.931Z,18
2022-09-30T02:41:17.811Z,18
2022-09-30T02:42:33.988Z,18
2022-09-30T02:43:50.500Z,18
2022-09-30T02:45:05.696Z,18
2022-09-30T02:46:21.880Z,18
2022-09-30T02:47:38.083Z,18
2022-09-30T02:48:53.941Z,18
2022-09-30T02:50:10.448Z,18
2022-09-30T02:51:26.643Z,18
2022-09-30T02:52:42.490Z,18
2022-09-30T02:53:58.677Z,18
2022-09-30T02:55:14.871Z,17.9
2022-09-30T02:56:31.064Z,18
2022-09-30T02:57:47.250Z,18
2022-09-30T02:59:03.428Z,17.9
2022-09-30T03:00:19.942Z,17.9
2022-09-30T03:01:34.823Z,18
2022-09-30T03:02:51.019Z,17.9
2022-09-30T03:04:07.204Z,17.9
2022-09-30T03:05:23.715Z,17.9
2022-09-30T03:06:39.575Z,17.9
2022-09-30T03:07:56.102Z,17.9
2022-09-30T03:09:11.940Z,17.9
2022-09-30T03:10:28.126Z,17.9
2022-09-30T03:11:44.313Z,17.9
2022-09-30T03:13:00.849Z,17.9
2022-09-30T03:14:17.036Z,17.9
2022-09-30T03:15:33.215Z,17.9
2022-09-30T03:16:49.071Z,17.9
2022-09-30T03:18:04.613Z,17.9
2022-09-30T03:19:20.460Z,17.9
2022-09-30T03:20:36.640Z,17.9
2022-09-30T03:21:53.161Z,17.9
2022-09-30T03:23:09.350Z,17.9
2022-09-30T03:24:25.540Z,17.9
2022-09-30T03:25:41.740Z,17.9
2022-09-30T03:26:57.578Z,17.9
2022-09-30T03:28:13.778Z,17.9
2022-09-30T03:29:29.947Z,17.9
2022-09-30T03:30:46.478Z,17.9
2022-09-30T03:32:02.323Z,17.9
2022-09-30T03:33:18.523Z,17.9
2022-09-30T03:34:33.719Z,17.9
2022-09-30T03:35:50.236Z,17.9
2022-09-30T03:37:06.089Z,17.9
2022-09-30T03:38:22.612Z,17.9
2022-09-30T03:39:38.812Z,17.9
2022-09-30T03:40:54.997Z,17.9
2022-09-30T03:42:10.846Z,17.9
2022-09-30T03:43:27.373Z,17.9
2022-09-30T03:44:43.221Z,17.9
2022-09-30T03:45:59.401Z,17.9
2022-09-30T03:47:15.923Z,17.9
2022-09-30T03:48:32.122Z,17.9
2022-09-30T03:49:47.970Z,17.9
2022-09-30T03:51:03.517Z,17.9
2022-09-30T03:52:19.693Z,17.9
2022-09-30T03:53:35.534Z,17.9
2022-09-30T03:54:51.734Z,17.9
2022-09-30T03:56:08.253Z,17.9
2022-09-30T03:57:24.098Z,17.9
2022-09-30T03:58:40.288Z,17.9
2022-09-30T03:59:56.823Z,17.9
2022-09-30T04:01:13.012Z,17.9
2022-09-30T04:02:29.193Z,17.9
2022-09-30T04:03:45.386Z,17.9
2022-09-30T04:05:01.218Z,17.9
2022-09-30T04:06:17.753Z,17.9
2022-09-30T04:07:33.591Z,17.9
2022-09-30T04:08:49.142Z,17.9
2022-09-30T04:10:04.996Z,17.9
2022-09-30T04:11:21.167Z,17.9
2022-09-30T04:12:37.369Z,17.9
2022-09-30T04:13:53.891Z,17.9
2022-09-30T04:15:10.084Z,17.9
2022-09-30T04:16:26.262Z,17.9
2022-09-30T04:17:42.117Z,17.9
2022-09-30T04:18:58.637Z,17.9
2022-09-30T04:20:14.479Z,17.9
2022-09-30T04:21:31.022Z,17.9
2022-09-30T04:22:46.847Z,17.9
2022-09-30T04:25:19.580Z,17.9
2022-09-30T04:26:34.790Z,17.8
2022-09-30T04:27:50.629Z,17.8
2022-09-30T04:29:07.165Z,17.8
2022-09-30T04:30:23.341Z,17.8
2022-09-30T04:31:39.532Z,17.8
2022-09-30T04:32:55.709Z,17.8
2022-09-30T04:34:11.557Z,17.8
2022-09-30T04:35:27.752Z,17.8
2022-09-30T04:36:43.932Z,17.8
2022-09-30T04:38:00.462Z,17.8
2022-09-30T04:39:16.659Z,17.8
2022-09-30T04:40:32.834Z,17.8
2022-09-30T04:41:49.027Z,17.8
2022-09-30T04:43:03.877Z,17.8
2022-09-30T04:44:20.417Z,17.8
2022-09-30T04:45:36.615Z,17.8
2022-09-30T04:46:52.793Z,17.8
2022-09-30T04:48:08.989Z,17.8
2022-09-30T04:49:24.809Z,17.8
2022-09-30T04:50:40.998Z,17.8
2022-09-30T04:51:57.553Z,17.8
2022-09-30T04:53:13.726Z,17.8
2022-09-30T04:54:29.921Z,17.8
2022-09-30T04:55:46.099Z,17.8
2022-09-30T04:57:01.938Z,17.8
2022-09-30T04:58:18.132Z,17.8
2022-09-30T04:59:33.680Z,17.8
2022-09-30T05:00:49.876Z,17.8
2022-09-30T05:02:05.708Z,17.8
2022-09-30T05:03:22.246Z,17.8
2022-09-30T05:04:38.071Z,17.8
2022-09-30T05:05:54.263Z,17.8
2022-09-30T05:07:10.449Z,17.8
2022-09-30T05:08:26.994Z,17.8
2022-09-30T05:09:42.826Z,17.8
2022-09-30T05:10:59.359Z,17.8
2022-09-30T05:12:15.549Z,17.8
2022-09-30T05:13:31.387Z,17.8
2022-09-30T05:14:47.569Z,17.8
2022-09-30T05:16:02.769Z,17.8
2022-09-30T05:17:18.954Z,17.8
2022-09-30T05:18:35.141Z,17.8
2022-09-30T05:19:51.701Z,17.8
2022-09-30T05:21:07.524Z,17.8
2022-09-30T05:22:24.070Z,17.8
2022-09-30T05:23:39.897Z,17.8
2022-09-30T05:24:56.452Z,17.8
2022-09-30T05:26:12.625Z,17.8
2022-09-30T05:27:28.461Z,17.8
2022-09-30T05:28:44.650Z,17.8
2022-09-30T05:30:01.190Z,17.8
2022-09-30T05:31:17.030Z,17.8
2022-09-30T05:32:32.581Z,17.8
2022-09-30T05:33:48.403Z,17.8
2022-09-30T05:35:04.960Z,17.8
2022-09-30T05:36:20.785Z,17.8
2022-09-30T05:37:37.327Z,17.8
2022-09-30T05:38:53.518Z,17.8
2022-09-30T05:40:09.343Z,17.8
2022-09-30T05:41:25.539Z,17.8
2022-09-30T05:42:42.086Z,17.8
2022-09-30T05:43:57.897Z,17.8
2022-09-30T05:45:14.465Z,17.8
2022-09-30T05:46:30.651Z,17.8
2022-09-30T05:47:46.836Z,17.8
2022-09-30T05:49:02.047Z,17.8
2022-09-30T05:50:18.233Z,17.9
2022-09-30T05:51:34.036Z,17.9
2022-09-30T05:52:50.221Z,17.9
2022-09-30T05:54:06.413Z,17.8
2022-09-30T05:55:22.965Z,17.9
2022-09-30T05:56:39.158Z,17.9
2022-09-30T05:57:55.358Z,17.8
2022-09-30T05:59:11.454Z,17.9
2022-09-30T06:00:27.729Z,17.9
2022-09-30T06:01:43.000Z,17.9
2022-09-30T06:02:59.994Z,17.9
2022-09-30T06:04:16.281Z,17.9
2022-09-30T06:05:31.396Z,17.9
2022-09-30T06:06:47.583Z,17.9
2022-09-30T06:08:03.869Z,17.9
2022-09-30T06:09:20.049Z,17.9
2022-09-30T06:10:36.232Z,17.9
2022-09-30T06:11:52.320Z,17.9
2022-09-30T06:13:08.608Z,17.9
2022-09-30T06:14:24.696Z,17.9
2022-09-30T06:15:40.981Z,17.9
2022-09-30T06:16:57.088Z,17.9
2022-09-30T06:18:13.261Z,17.9
2022-09-30T06:19:29.549Z,17.9
2022-09-30T06:20:45.728Z,17.9
2022-09-30T06:22:00.848Z,17.9
2022-09-30T06:23:17.024Z,17.9
2022-09-30T06:24:33.316Z,17.9
2022-09-30T06:25:49.492Z,17.9
2022-09-30T06:27:05.682Z,17.9
2022-09-30T06:28:21.874Z,17.9
2022-09-30T06:29:37.956Z,17.9
2022-09-30T06:30:54.256Z,17.9
2022-09-30T06:32:10.433Z,18
2022-09-30T06:33:26.519Z,17.9
2022-09-30T06:34:42.723Z,17.9
2022-09-30T06:35:59.010Z,17.9
2022-09-30T06:37:15.094Z,17.9
2022-09-30T06:38:30.398Z,17.9
2022-09-30T06:39:46.578Z,18
2022-09-30T06:41:02.668Z,18
2022-09-30T06:42:18.944Z,18
2022-09-30T06:43:34.064Z,18
2022-09-30T06:44:50.255Z,18
2022-09-30T06:46:06.543Z,18
2022-09-30T06:47:22.614Z,18
2022-09-30T06:48:38.813Z,18
2022-09-30T06:49:55.089Z,18
2022-09-30T06:51:11.289Z,18
2022-09-30T06:52:27.375Z,18
2022-09-30T06:53:43.561Z,18
2022-09-30T06:54:59.847Z,18
2022-09-30T06:56:16.041Z,18
2022-09-30T06:57:32.225Z,18
2022-09-30T06:58:48.408Z,18
2022-09-30T07:00:03.509Z,18
2022-09-30T07:01:19.692Z,18
2022-09-30T07:02:35.991Z,18
2022-09-30T07:03:52.178Z,18
2022-09-30T07:05:08.354Z,18
2022-09-30T07:06:24.547Z,18
2022-09-30T07:07:40.629Z,18
2022-09-30T07:08:56.920Z,18.1
2022-09-30T07:10:13.113Z,18
2022-09-30T07:11:29.301Z,18.1
2022-09-30T07:12:45.484Z,18.1
2022-09-30T07:14:01.680Z,18.1
2022-09-30T07:15:17.762Z,18.1
2022-09-30T07:16:32.971Z,18.1
2022-09-30T07:17:49.153Z,18.1
2022-09-30T07:19:05.449Z,18.1
2022-09-30T07:20:21.644Z,18.1
2022-09-30T07:21:37.728Z,18.1
2022-09-30T07:22:53.919Z,18.1
2022-09-30T07:24:10.206Z,18.1
2022-09-30T07:25:26.286Z,18.1
2022-09-30T07:26:42.585Z,18.1
2022-09-30T07:27:58.660Z,18.1
2022-09-30T07:29:14.972Z,18.1
2022-09-30T07:30:31.037Z,18.1
2022-09-30T07:31:47.347Z,18.1
2022-09-30T07:33:02.542Z,18.1
2022-09-30T07:34:18.626Z,18.1
2022-09-30T07:35:34.917Z,18.1
2022-09-30T07:36:51.120Z,18.2
2022-09-30T07:38:07.192Z,18.2
2022-09-30T07:39:23.483Z,18.2
2022-09-30T07:40:39.677Z,18.2
2022-09-30T07:41:55.875Z,18.2
2022-09-30T07:43:12.063Z,18.2
2022-09-30T07:44:28.248Z,18.2
2022-09-30T07:45:44.328Z,18.2
2022-09-30T07:47:00.515Z,18.2
2022-09-30T07:48:16.802Z,18.2
2022-09-30T07:49:32.023Z,18.2
2022-09-30T07:50:48.196Z,18.2
2022-09-30T07:52:04.396Z,18.2
2022-09-30T07:53:20.462Z,18.2
2022-09-30T07:54:36.769Z,18.2
2022-09-30T07:55:52.964Z,18.2
2022-09-30T07:57:09.036Z,18.2
2022-09-30T07:58:25.340Z,18.3
2022-09-30T07:59:41.406Z,18.2
2022-09-30T08:00:57.599Z,18.3
2022-09-30T08:02:13.780Z,18.3
2022-09-30T08:03:30.081Z,18.3
2022-09-30T08:04:46.278Z,18.3
2022-09-30T08:06:01.374Z,18.3
2022-09-30T08:07:17.663Z,18.3
2022-09-30T08:08:33.748Z,18.3
2022-09-30T08:09:50.045Z,18.3
2022-09-30T08:11:06.245Z,18.3
2022-09-30T08:12:22.314Z,18.3
2022-09-30T08:13:38.622Z,18.3
2022-09-30T08:14:54.680Z,18.3
2022-09-30T08:16:10.873Z,18.3
2022-09-30T08:17:27.192Z,18.3
2022-09-30T08:18:43.365Z,18.4
2022-09-30T08:19:59.564Z,18.4
2022-09-30T08:21:15.756Z,18.4
2022-09-30T08:22:30.829Z,18.4
2022-09-30T08:23:47.018Z,18.4
2022-09-30T08:25:03.328Z,18.4
2022-09-30T08:26:19.527Z,18.4
2022-09-30T08:27:35.718Z,18.5
2022-09-30T08:28:51.908Z,18.5
2022-09-30T08:30:08.081Z,18.5
2022-09-30T08:31:24.160Z,18.4
2022-09-30T08:32:40.465Z,18.4
2022-09-30T08:33:56.664Z,18.5
2022-09-30T08:35:12.852Z,18.5
2022-09-30T08:36:29.032Z,18.5
2022-09-30T08:37:45.231Z,18.5
2022-09-30T08:39:00.422Z,18.5
2022-09-30T08:40:16.624Z,18.5
2022-09-30T08:41:32.799Z,18.5
2022-09-30T08:42:48.999Z,18.5
2022-09-30T08:44:05.188Z,18.5
2022-09-30T08:45:21.368Z,18.5
2022-09-30T08:46:37.429Z,18.5
2022-09-30T08:47:53.750Z,18.5
2022-09-30T08:49:09.940Z,18.5
2022-09-30T08:50:25.996Z,18.5
2022-09-30T08:51:42.310Z,18.5
2022-09-30T08:52:58.498Z,18.5
2022-09-30T08:54:14.691Z,18.5
2022-09-30T08:55:29.895Z,18.5
2022-09-30T08:56:46.095Z,18.5
2022-09-30T08:58:02.142Z,18.6
2022-09-30T08:59:18.347Z,18.5
2022-09-30T09:00:34.654Z,18.5
2022-09-30T09:01:50.721Z,18.6
2022-09-30T09:03:06.898Z,18.6
2022-09-30T09:04:23.212Z,18.6
2022-09-30T09:05:39.407Z,18.6
2022-09-30T09:06:55.607Z,18.6
2022-09-30T09:08:11.788Z,18.6
2022-09-30T09:09:27.855Z,18.6
2022-09-30T09:10:44.158Z,18.6
2022-09-30T09:11:59.374Z,18.6
2022-09-30T09:13:15.558Z,18.6
2022-09-30T09:14:31.755Z,18.6
2022-09-30T09:15:47.807Z,18.6
2022-09-30T09:17:03.987Z,18.6
2022-09-30T09:18:20.313Z,18.6
2022-09-30T09:19:36.496Z,18.7
2022-09-30T09:20:52.694Z,18.7
2022-09-30T09:22:08.891Z,18.7
2022-09-30T09:23:25.064Z,18.7
2022-09-30T09:24:41.130Z,18.7
2022-09-30T09:25:57.309Z,18.7
2022-09-30T09:27:13.637Z,18.7
2022-09-30T09:28:28.712Z,18.7
2022-09-30T09:29:44.899Z,18.7
2022-09-30T09:31:01.221Z,18.7
2022-09-30T09:32:17.279Z,18.8
2022-09-30T09:33:33.459Z,18.8
2022-09-30T09:34:49.785Z,18.8
2022-09-30T09:36:05.985Z,18.8
2022-09-30T09:37:22.160Z,18.8
2022-09-30T09:38:38.352Z,18.8
2022-09-30T09:41:10.592Z,18.8
2022-09-30T09:42:26.926Z,18.8
2022-09-30T09:43:43.122Z,18.8
2022-09-30T09:44:58.319Z,18.8
2022-09-30T09:46:14.510Z,18.9
2022-09-30T09:47:30.569Z,18.9
2022-09-30T09:48:46.743Z,18.9
2022-09-30T09:50:03.083Z,19
2022-09-30T09:51:19.262Z,19
2022-09-30T09:52:35.316Z,19
2022-09-30T09:53:51.495Z,19.1
2022-09-30T09:55:07.686Z,19.1
2022-09-30T09:56:24.031Z,19.1
2022-09-30T09:57:40.072Z,19.1
2022-09-30T09:58:56.393Z,19.2
2022-09-30T10:00:12.596Z,19.2
2022-09-30T10:01:27.653Z,19.2
2022-09-30T10:02:43.847Z,19.2
2022-09-30T10:04:00.170Z,19.2
2022-09-30T10:05:16.362Z,19.3
2022-09-30T10:06:32.554Z,19.3
2022-09-30T10:07:48.000Z,19.3
2022-09-30T10:09:04.930Z,19.3
2022-09-30T10:10:20.973Z,19.3
2022-09-30T10:11:37.306Z,19.3
2022-09-30T10:12:53.345Z,19.4
2022-09-30T10:14:09.538Z,19.4
2022-09-30T10:15:25.739Z,19.4
2022-09-30T10:16:42.058Z,19.4
2022-09-30T10:17:57.119Z,19.4
2022-09-30T10:19:13.315Z,19.5
2022-09-30T10:20:29.657Z,19.5
2022-09-30T10:21:45.845Z,19.6
2022-09-30T10:23:01.888Z,19.6
2022-09-30T10:24:18.215Z,19.7
2022-09-30T10:25:34.268Z,19.7
2022-09-30T10:26:50.442Z,19.8
2022-09-30T10:28:06.638Z,19.8
2022-09-30T10:29:22.980Z,19.9
2022-09-30T10:30:39.156Z,20
2022-09-30T10:31:55.211Z,20
2022-09-30T10:33:11.390Z,20.1
2022-09-30T10:34:26.753Z,20.1
2022-09-30T10:35:42.927Z,20.1
2022-09-30T10:36:58.977Z,20.2
2022-09-30T10:38:15.156Z,20.2
2022-09-30T10:39:31.362Z,20.3
2022-09-30T10:40:47.547Z,20.4
2022-09-30T10:42:03.883Z,20.4
2022-09-30T10:43:20.063Z,20.5
2022-09-30T10:44:36.105Z,20.5
2022-09-30T10:45:52.449Z,20.6
2022-09-30T10:47:08.644Z,20.6
2022-09-30T10:48:24.670Z,20.7
2022-09-30T10:49:40.866Z,20.7
2022-09-30T10:50:56.074Z,20.7
2022-09-30T10:52:12.408Z,20.8
2022-09-30T10:53:28.604Z,20.8
2022-09-30T10:54:44.788Z,20.9
2022-09-30T10:56:00.830Z,20.4
2022-09-30T10:57:17.003Z,20.4
2022-09-30T10:58:32.367Z,20.6
2022-09-30T10:59:48.569Z,20.8
2022-09-30T11:01:04.602Z,20.9
2022-09-30T11:02:20.935Z,21
2022-09-30T11:03:36.980Z,21.1
2022-09-30T11:04:53.159Z,21.1
2022-09-30T11:06:09.513Z,21.2
2022-09-30T11:07:25.705Z,21.2
2022-09-30T11:08:41.879Z,21.2
2022-09-30T11:09:58.076Z,21.3
2022-09-30T11:11:14.112Z,21.4
2022-09-30T11:12:30.446Z,21.4
2022-09-30T11:13:46.652Z,21.5
2022-09-30T11:15:01.686Z,21.5
2022-09-30T11:16:17.878Z,21.5
2022-09-30T11:17:34.070Z,21.3
2022-09-30T11:18:50.269Z,21.4
2022-09-30T11:20:06.610Z,21.5
2022-09-30T11:21:22.639Z,21.5
2022-09-30T11:22:38.836Z,21.6
2022-09-30T11:23:55.169Z,21.7
2022-09-30T11:25:11.355Z,21.8
2022-09-30T11:26:27.394Z,21.8
2022-09-30T11:27:43.740Z,21.9
2022-09-30T11:28:59.926Z,21.9
2022-09-30T11:30:16.119Z,22
2022-09-30T11:31:31.168Z,22.1
2022-09-30T11:32:47.503Z,22.1
2022-09-30T11:34:03.553Z,21.8
2022-09-30T11:35:19.723Z,21.9
2022-09-30T11:36:36.081Z,22
2022-09-30T11:37:52.263Z,21.9
2022-09-30T11:39:08.457Z,21.9
2022-09-30T11:40:24.644Z,22
2022-09-30T11:41:40.675Z,22.1
2022-09-30T11:42:57.026Z,22.2
2022-09-30T11:44:13.223Z,22.3
2022-09-30T11:45:29.411Z,22.4
2022-09-30T11:46:45.595Z,22.4
2022-09-30T11:48:00.634Z,22.5
2022-09-30T11:49:16.835Z,22.5
2022-09-30T11:50:33.172Z,22.6
2022-09-30T11:51:49.361Z,22.6
2022-09-30T11:53:05.562Z,22.6
2022-09-30T11:54:21.735Z,22.7
2022-09-30T11:55:37.773Z,22.5
2022-09-30T11:56:53.952Z,22
2022-09-30T11:58:10.000Z,21.8
2022-09-30T11:59:26.509Z,22.1
2022-09-30T12:00:42.685Z,22.4
2022-09-30T12:01:58.878Z,22.6
2022-09-30T12:03:14.891Z,22.8
2022-09-30T12:04:30.106Z,22.5
2022-09-30T12:05:46.463Z,22.1
2022-09-30T12:07:02.660Z,21.9
2022-09-30T12:08:18.844Z,22
2022-09-30T12:09:35.023Z,22.5
2022-09-30T12:10:51.214Z,22.9
2022-09-30T12:12:07.232Z,23.2
2022-09-30T12:13:23.420Z,23.3
2022-09-30T12:14:39.794Z,22.7
2022-09-30T12:15:55.797Z,22.3
2022-09-30T12:17:11.994Z,22
2022-09-30T12:18:28.177Z,22.3
2022-09-30T12:19:44.372Z,22.2
2022-09-30T12:20:59.742Z,22.7
2022-09-30T12:22:15.943Z,23.2
2022-09-30T12:23:32.128Z,23.5
2022-09-30T12:24:48.303Z,23.7
2022-09-30T12:26:04.323Z,23.8
2022-09-30T12:27:20.526Z,24
2022-09-30T12:28:36.884Z,24
2022-09-30T12:29:53.061Z,24.1
2022-09-30T12:31:09.264Z,24.2
2022-09-30T12:32:25.449Z,24.2
2022-09-30T12:33:41.645Z,24.3
2022-09-30T12:34:57.657Z,24.3
2022-09-30T12:36:14.010Z,24.4
2022-09-30T12:37:29.212Z,24.5
2022-09-30T12:38:45.243Z,24.5
2022-09-30T12:40:01.599Z,23.7
2022-09-30T12:41:17.789Z,23.1
2022-09-30T12:42:33.816Z,22.8
2022-09-30T12:43:50.161Z,22.5
2022-09-30T12:45:06.348Z,22.3
2022-09-30T12:46:22.378Z,22.2
2022-09-30T12:47:38.552Z,22.1
2022-09-30T12:48:54.929Z,22.1
2022-09-30T12:50:10.937Z,22.2
2022-09-30T12:51:27.295Z,22.9
2022-09-30T12:52:43.309Z,23.6
2022-09-30T12:53:58.701Z,24
2022-09-30T12:55:14.891Z,24.3
2022-09-30T12:56:31.079Z,24.6
2022-09-30T12:57:47.088Z,24.7
2022-09-30T12:59:03.441Z,24.8
2022-09-30T13:00:19.639Z,25
2022-09-30T13:01:35.835Z,25
2022-09-30T13:02:51.848Z,25.1
2022-09-30T13:04:08.039Z,25.2
2022-09-30T13:05:24.216Z,24.7
2022-09-30T13:06:40.415Z,23.9
2022-09-30T13:07:56.772Z,23.3
2022-09-30T13:09:12.959Z,22.9
2022-09-30T13:10:27.983Z,22.7
2022-09-30T13:11:44.363Z,22.6
2022-09-30T13:13:00.364Z,22.5
2022-09-30T13:14:16.745Z,22.5
2022-09-30T13:15:32.931Z,22.4
2022-09-30T13:16:49.114Z,22.3
2022-09-30T13:18:05.312Z,22.2
2022-09-30T13:19:21.487Z,22.2
2022-09-30T13:20:37.503Z,22.1
2022-09-30T13:21:53.865Z,22.1
2022-09-30T13:23:10.065Z,22
2022-09-30T13:24:26.074Z,22
2022-09-30T13:25:42.427Z,21.9
2022-09-30T13:26:57.644Z,21.9
2022-09-30T13:28:13.661Z,22
2022-09-30T13:29:30.031Z,22
2022-09-30T13:30:46.030Z,22
2022-09-30T13:32:02.400Z,22
2022-09-30T13:33:18.588Z,21.9
2022-09-30T13:34:34.787Z,21.8
2022-09-30T13:35:50.792Z,21.8
2022-09-30T13:37:07.153Z,21.7
2022-09-30T13:38:23.354Z,21.7
2022-09-30T13:39:39.533Z,21.7
2022-09-30T13:40:55.721Z,21.7
2022-09-30T13:42:11.729Z,21.7
2022-09-30T13:43:26.937Z,21.6
2022-09-30T13:44:43.300Z,21.6
2022-09-30T13:45:59.000Z,21.6
2022-09-30T13:47:15.496Z,21.5
2022-09-30T13:48:31.881Z,21.5
2022-09-30T13:49:47.887Z,21.5
2022-09-30T13:51:04.071Z,21.5
2022-09-30T13:52:20.263Z,21.4
2022-09-30T13:53:36.626Z,21.4
2022-09-30T13:54:52.634Z,21.4
2022-09-30T13:56:09.018Z,21.5
2022-09-30T13:57:25.199Z,21.5
2022-09-30T13:58:41.196Z,21.4
2022-09-30T13:59:56.585Z,21.4
2022-09-30T14:01:12.787Z,21.4
2022-09-30T14:02:28.962Z,21.4
2022-09-30T14:03:45.154Z,21.4
2022-09-30T14:05:01.350Z,21.4
2022-09-30T14:06:17.358Z,21.4
2022-09-30T14:07:33.732Z,21.3
2022-09-30T14:08:49.730Z,21.3
2022-09-30T14:10:05.906Z,21.3
2022-09-30T14:11:22.288Z,21.3
2022-09-30T14:12:38.486Z,21.2
2022-09-30T14:13:54.489Z,21.2
2022-09-30T14:15:10.663Z,21.2
2022-09-30T14:16:26.076Z,21.2
2022-09-30T14:17:42.253Z,21.2
2022-09-30T14:18:58.257Z,21.2
2022-09-30T14:20:14.440Z,21.2
2022-09-30T14:21:30.624Z,21.2
2022-09-30T14:22:47.017Z,21.2
2022-09-30T14:24:03.004Z,21.2
2022-09-30T14:25:19.398Z,21.2
2022-09-30T14:26:35.587Z,21.2
2022-09-30T14:27:51.574Z,21.2
2022-09-30T14:29:07.754Z,21.2
2022-09-30T14:30:24.139Z,21.1
2022-09-30T14:31:40.341Z,21.1
2022-09-30T14:32:55.543Z,21.1
2022-09-30T14:34:11.533Z,21.1
2022-09-30T14:35:27.734Z,21.1
2022-09-30T14:36:43.912Z,21
2022-09-30T14:38:00.288Z,21.1
2022-09-30T14:39:16.490Z,21.1
2022-09-30T14:40:32.684Z,21.1
2022-09-30T14:41:48.863Z,21.1
2022-09-30T14:43:05.053Z,21.1
2022-09-30T14:44:21.242Z,21.1
2022-09-30T14:45:37.241Z,21.1
2022-09-30T14:46:53.630Z,21.1
2022-09-30T14:48:09.801Z,21.1
2022-09-30T14:49:25.008Z,21.1
2022-09-30T14:50:41.210Z,21.1
2022-09-30T14:51:57.192Z,21.1
2022-09-30T14:53:13.383Z,21
2022-09-30T14:54:29.764Z,21
2022-09-30T14:55:45.965Z,21
2022-09-30T14:57:01.952Z,20.9
2022-09-30T14:58:18.329Z,20.9
2022-09-30T14:59:34.535Z,20.9
2022-09-30T15:00:50.720Z,20.9
2022-09-30T15:02:06.900Z,20.9
2022-09-30T15:03:23.093Z,20.8
2022-09-30T15:04:39.082Z,20.8
2022-09-30T15:05:54.296Z,20.8
2022-09-30T15:07:10.486Z,20.8
2022-09-30T15:08:26.876Z,20.8
2022-09-30T15:09:43.049Z,20.8
2022-09-30T15:10:59.041Z,20.8
2022-09-30T15:12:15.433Z,20.7
2022-09-30T15:13:30.636Z,20.7
2022-09-30T15:14:46.635Z,20.7
2022-09-30T15:16:03.033Z,20.7
2022-09-30T15:17:19.208Z,20.7
2022-09-30T15:18:35.411Z,20.7
2022-09-30T15:19:51.591Z,20.7
2022-09-30T15:21:07.580Z,20.7
2022-09-30T15:22:23.766Z,20.6
2022-09-30T15:23:40.149Z,20.6
2022-09-30T15:24:56.342Z,20.6
2022-09-30T15:26:12.539Z,20.6
2022-09-30T15:27:28.728Z,20.6
2022-09-30T15:28:44.916Z,20.5
2022-09-30T15:29:59.922Z,20.5
2022-09-30T15:31:16.299Z,20.5
2022-09-30T15:32:32.499Z,20.5
2022-09-30T15:33:48.695Z,20.5
2022-09-30T15:35:04.880Z,20.5
2022-09-30T15:36:20.855Z,20.5
2022-09-30T15:37:37.041Z,20.5
2022-09-30T15:38:53.439Z,20.5
2022-09-30T15:40:09.637Z,20.5
2022-09-30T15:41:25.821Z,20.5
2022-09-30T15:42:42.012Z,20.6
2022-09-30T15:43:58.207Z,20.6
2022-09-30T15:45:14.186Z,20.6
2022-09-30T15:46:29.599Z,20.6
2022-09-30T15:47:45.790Z,20.5
2022-09-30T15:49:01.761Z,20.5
2022-09-30T15:50:18.165Z,20.5
2022-09-30T15:51:34.346Z,20.5
2022-09-30T15:52:50.330Z,20.5
2022-09-30T15:54:06.716Z,20.5
2022-09-30T15:55:22.925Z,20.4
2022-09-30T15:56:39.098Z,20.4
2022-09-30T15:57:55.092Z,20.4
2022-09-30T15:59:11.486Z,20.4
2022-09-30T16:00:27.460Z,20.4
2022-09-30T16:01:43.648Z,20.4
2022-09-30T16:02:59.067Z,20.3
2022-09-30T16:04:15.246Z,20.3
2022-09-30T16:05:31.447Z,20.3
2022-09-30T16:06:47.642Z,20.3
2022-09-30T16:08:03.604Z,20.3
2022-09-30T16:09:20.010Z,20.3
2022-09-30T16:10:35.988Z,20.3
2022-09-30T16:11:52.387Z,20.2
2022-09-30T16:13:08.578Z,20.2
2022-09-30T16:14:24.546Z,20.2
2022-09-30T16:15:40.752Z,20.2
2022-09-30T16:16:57.154Z,20.2
2022-09-30T16:18:13.337Z,20.2
2022-09-30T16:19:28.547Z,20.2
2022-09-30T16:20:44.509Z,20.2
2022-09-30T16:22:00.920Z,20.2
2022-09-30T16:23:16.895Z,20.1
2022-09-30T16:24:33.290Z,20.1
2022-09-30T16:25:49.476Z,20.1
2022-09-30T16:27:05.460Z,20.1
2022-09-30T16:28:21.854Z,20.1
2022-09-30T16:29:38.051Z,20.1
2022-09-30T16:30:54.034Z,20.1
2022-09-30T16:32:10.206Z,20.1
2022-09-30T16:33:26.627Z,20.1
2022-09-30T16:34:42.588Z,20
2022-09-30T16:35:58.009Z,20
2022-09-30T16:37:13.973Z,20
2022-09-30T16:38:30.178Z,20
2022-09-30T16:39:46.349Z,20
2022-09-30T16:41:02.761Z,20
2022-09-30T16:42:18.957Z,20
2022-09-30T16:43:34.911Z,20
2022-09-30T16:44:51.324Z,20
2022-09-30T16:46:07.283Z,19.9
2022-09-30T16:47:23.485Z,20
2022-09-30T16:48:39.877Z,19.9
2022-09-30T16:49:56.074Z,19.9
2022-09-30T16:51:12.263Z,19.9
2022-09-30T16:52:27.236Z,19.9
2022-09-30T16:53:43.441Z,19.9
2022-09-30T16:54:59.839Z,19.9
2022-09-30T16:56:16.035Z,19.9
2022-09-30T16:57:32.204Z,19.9
2022-09-30T16:58:48.406Z,19.8
2022-09-30T17:00:04.578Z,19.8
2022-09-30T17:01:20.556Z,19.8
2022-09-30T17:02:36.741Z,19.8
2022-09-30T17:03:53.151Z,19.8
2022-09-30T17:05:09.125Z,19.8